Time;durP1;ratioP1;P1;durP2;ratioP2;P2;SDS_P1;SDS_P2;PMS_P1;PMS_P2;Temp;Humidity;BMP_temperature;BMP_pressure;BME280_temperature;BME280_humidity;BME280_pressure;Samples;Min_cycle;Max_cycle;Signal;HPM_P1;HPM_P2
2024/01/09 08:31:48;;;;;;;12.27;8.47;;;-4.40;99.90;-5.40;102194;;;;596728;236;31709;-81
2024/01/09 08:34:16;;;;;;;14.93;8.97;;;-4.20;99.90;-5.20;102194;;;;592767;234;24035;-81
2024/01/09 08:36:48;;;;;;;14.17;9.30;;;-3.90;99.90;-4.90;102195;;;;599302;234;24123;-82
2024/01/09 08:39:15;;;;;;;11.67;8.70;;;-3.60;99.90;-4.60;102203;;;;596428;238;24079;-83
2024/01/09 08:41:41;;;;;;;15.17;8.90;;;-3.30;99.90;-4.40;102202;;;;586412;239;24078;-84
2024/01/09 08:44:14;;;;;;;16.33;9.07;;;-3.10;99.90;-4.20;102197;;;;577368;244;24284;-85
2024/01/09 08:46:38;;;;;;;11.43;4.80;;;-2.80;99.90;-4.00;102193;;;;577546;242;24083;-85
2024/01/09 08:49:07;;;;;;;9.13;5.53;;;-2.70;99.90;-3.90;102192;;;;579631;241;24077;-85
2024/01/09 08:51:35;;;;;;;6.30;4.90;;;-2.50;99.90;-3.70;102199;;;;585492;239;24075;-84
2024/01/09 08:54:02;;;;;;;7.53;5.13;;;-2.30;99.90;-3.50;102200;;;;573061;244;24075;-83
2024/01/09 08:56:30;;;;;;;9.00;4.80;;;-2.10;99.90;-3.30;102208;;;;573314;245;24045;-85
2024/01/09 08:58:59;;;;;;;11.17;4.60;;;-1.90;99.90;-3.20;102202;;;;573800;246;24093;-84
2024/01/09 09:01:27;;;;;;;13.53;5.23;;;-1.90;99.90;-3.20;102206;;;;575215;242;24098;-85
2024/01/09 09:03:55;;;;;;;10.27;3.90;;;-1.80;99.90;-3.20;102206;;;;581791;239;24099;-84
2024/01/09 09:06:23;;;;;;;6.33;4.70;;;-1.80;99.90;-3.10;102216;;;;583274;238;24059;-85
2024/01/09 09:08:50;;;;;;;11.60;4.70;;;-1.70;99.90;-3.00;102217;;;;581890;240;24123;-85
2024/01/09 09:11:18;;;;;;;9.23;5.17;;;-1.60;99.90;-2.90;102214;;;;584677;240;24064;-84
2024/01/09 09:13:47;;;;;;;5.47;4.03;;;-1.40;99.90;-2.80;102209;;;;582332;241;24023;-85
2024/01/09 09:16:15;;;;;;;10.23;6.20;;;-1.50;99.90;-2.70;102214;;;;586536;242;24163;-86
2024/01/09 09:18:46;;;;;;;11.30;4.97;;;-1.40;99.90;-2.60;102208;;;;576618;245;24047;-83
2024/01/09 09:21:11;;;;;;;9.97;5.87;;;-1.30;99.90;-2.50;102217;;;;584673;238;24055;-83
2024/01/09 09:23:39;;;;;;;15.07;6.97;;;-1.20;99.90;-2.40;102218;;;;585992;240;24161;-83
2024/01/09 09:26:07;;;;;;;10.73;5.93;;;-1.10;99.90;-2.40;102213;;;;575305;245;24103;-83
2024/01/09 09:28:35;;;;;;;9.37;5.60;;;-1.10;99.90;-2.30;102217;;;;564472;246;24140;-85
2024/01/09 09:31:03;;;;;;;10.50;6.27;;;-1.00;99.90;-2.20;102224;;;;577716;244;24131;-84
2024/01/09 09:33:33;;;;;;;17.10;5.80;;;-0.90;99.90;-2.20;102213;;;;580328;245;24051;-85
2024/01/09 09:35:59;;;;;;;20.40;7.30;;;-0.80;99.90;-2.10;102214;;;;566650;246;24100;-85
2024/01/09 09:38:29;;;;;;;12.40;5.07;;;-0.80;99.90;-2.00;102213;;;;577263;245;24073;-84
2024/01/09 09:40:58;;;;;;;12.73;5.60;;;-0.70;99.90;-1.90;102208;;;;579649;242;24117;-84
2024/01/09 09:43:24;;;;;;;13.97;6.03;;;-0.60;99.90;-1.80;102210;;;;582995;244;24157;-84
2024/01/09 09:45:50;;;;;;;12.00;6.20;;;-0.50;99.90;-1.70;102216;;;;580782;241;24068;-84
2024/01/09 09:48:23;;;;;;;10.70;5.97;;;-0.40;99.90;-1.60;102212;;;;569529;249;24074;-83
2024/01/09 09:50:53;;;;;;;12.53;5.83;;;-0.30;99.90;-1.50;102210;;;;582945;245;24065;-84
2024/01/09 09:53:18;;;;;;;6.83;5.57;;;-0.20;99.90;-1.40;102213;;;;561571;252;24120;-83
2024/01/09 09:55:50;;;;;;;12.13;5.73;;;-0.10;99.90;-1.30;102207;;;;566392;250;24100;-84
2024/01/09 09:58:14;;;;;;;7.93;4.60;;;0.00;99.90;-1.30;102199;;;;577440;241;24061;-82
2024/01/09 10:00:46;;;;;;;10.10;6.03;;;0.00;99.90;-1.30;102202;;;;576512;241;24064;-83
2024/01/09 10:03:13;;;;;;;11.17;6.30;;;0.00;99.90;-1.30;102205;;;;569876;246;24099;-82
2024/01/09 10:05:39;;;;;;;16.60;7.80;;;0.00;99.90;-1.30;102205;;;;568987;246;24089;-84
2024/01/09 10:08:10;;;;;;;8.07;4.87;;;0.00;99.90;-1.30;102203;;;;579228;246;24179;-82
2024/01/09 10:10:37;;;;;;;10.07;5.83;;;0.00;99.90;-1.40;102198;;;;575101;247;25144;-83
2024/01/09 10:13:06;;;;;;;8.43;6.00;;;-0.10;99.90;-1.30;102197;;;;567330;246;24137;-84
2024/01/09 10:15:30;;;;;;;6.20;5.03;;;-0.10;99.90;-1.30;102200;;;;569869;250;24145;-84
2024/01/09 10:18:04;;;;;;;4.63;3.43;;;-0.10;99.90;-1.40;102200;;;;565905;251;24086;-82
2024/01/09 10:20:32;;;;;;;13.93;5.87;;;-0.10;99.90;-1.40;102197;;;;568704;252;24094;-83
2024/01/09 10:22:59;;;;;;;18.77;6.13;;;-0.10;99.90;-1.30;102197;;;;563471;251;24135;-83
2024/01/09 10:25:25;;;;;;;7.20;3.40;;;0.00;99.90;-1.20;102193;;;;563440;252;24121;-84
2024/01/09 10:27:54;;;;;;;6.30;5.70;;;0.00;99.90;-1.20;102199;;;;563037;252;24120;-83
2024/01/09 10:30:22;;;;;;;9.30;3.37;;;0.00;99.90;-1.30;102195;;;;563589;252;24095;-84
2024/01/09 10:32:49;;;;;;;5.20;4.27;;;0.00;99.90;-1.30;102189;;;;563077;252;24091;-83
2024/01/09 10:35:17;;;;;;;7.03;4.90;;;0.00;99.90;-1.30;102195;;;;563978;252;24092;-82
2024/01/09 10:37:45;;;;;;;7.17;5.17;;;0.00;99.90;-1.30;102193;;;;563419;252;24135;-84
2024/01/09 10:40:17;;;;;;;7.30;4.20;;;0.00;99.90;-1.30;102188;;;;562257;252;24131;-85
2024/01/09 10:42:47;;;;;;;9.30;5.33;;;0.00;99.90;-1.30;102190;;;;558155;254;24089;-84
2024/01/09 10:45:19;;;;;;;2.27;1.03;;;-0.10;99.90;-1.30;102185;;;;578684;248;24106;-84
2024/01/09 10:47:43;;;;;;;10.47;5.97;;;-0.10;99.90;-1.30;102190;;;;570007;246;24091;-83
2024/01/09 10:50:11;;;;;;;8.47;3.73;;;-0.10;99.90;-1.30;102191;;;;573739;244;24076;-84
2024/01/09 10:52:42;;;;;;;8.13;5.17;;;-0.10;99.90;-1.30;102189;;;;580865;242;24137;-83
2024/01/09 10:55:12;;;;;;;12.50;5.73;;;-0.10;99.90;-1.20;102179;;;;586057;239;24072;-85
2024/01/09 10:57:40;;;;;;;11.53;4.70;;;0.00;99.90;-1.20;102185;;;;596723;230;24088;-84
2024/01/09 11:00:08;;;;;;;8.27;6.37;;;0.00;99.90;-1.20;102176;;;;556987;254;24200;-84
2024/01/09 11:02:36;;;;;;;4.90;2.90;;;0.00;99.90;-1.20;102179;;;;560366;253;24196;-83
2024/01/09 11:05:04;;;;;;;16.90;6.67;;;0.00;99.90;-1.20;102178;;;;579381;248;24104;-84
2024/01/09 11:07:29;;;;;;;13.30;6.80;;;0.00;99.90;-1.10;102184;;;;579072;248;24102;-85
2024/01/09 11:10:02;;;;;;;7.23;5.93;;;0.10;99.90;-1.10;102180;;;;562893;253;24139;-83
2024/01/09 11:12:36;;;;;;;13.60;5.87;;;0.10;99.90;-1.10;102194;;;;559624;253;24150;-83
2024/01/09 11:15:25;;;;;;;10.37;5.67;;;0.10;99.90;-1.10;102181;;;;557351;253;24144;-84
2024/01/09 11:17:49;;;;;;;11.13;5.70;;;0.20;99.90;-1.00;102188;;;;545917;258;24142;-83
2024/01/09 11:20:20;;;;;;;12.23;6.83;;;0.20;99.90;-1.00;102184;;;;560594;253;24175;-85
2024/01/09 11:22:48;;;;;;;9.77;5.13;;;0.20;99.90;-1.00;102184;;;;547402;259;24233;-86
2024/01/09 11:25:18;;;;;;;8.20;4.13;;;0.20;99.90;-1.00;102185;;;;552376;258;24127;-84
2024/01/09 11:27:51;;;;;;;8.80;4.23;;;0.20;99.90;-1.10;102184;;;;558697;252;24130;-83
2024/01/09 11:30:20;;;;;;;12.40;4.17;;;0.10;99.90;-1.10;102182;;;;566535;253;24150;-83
2024/01/09 11:32:45;;;;;;;8.30;4.77;;;0.10;99.90;-1.10;102178;;;;554812;255;24185;-83
2024/01/09 11:35:18;;;;;;;7.53;5.83;;;0.10;99.90;-1.10;102173;;;;565204;249;24058;-83
2024/01/09 11:37:43;;;;;;;12.73;6.23;;;0.10;99.90;-1.10;102170;;;;554682;255;24134;-83
2024/01/09 11:40:11;;;;;;;8.17;5.33;;;0.10;99.90;-1.10;102168;;;;561660;253;24160;-83
2024/01/09 11:42:42;;;;;;;10.30;5.83;;;0.10;99.90;-1.00;102171;;;;570129;248;24126;-83
2024/01/09 11:45:11;;;;;;;17.85;10.57;;;0.20;99.90;-1.00;102167;;;;551201;255;35637;-83
2024/01/09 11:47:40;;;;;;;15.03;7.00;;;0.20;99.90;-1.00;102165;;;;564026;253;24192;-82
2024/01/09 11:50:08;;;;;;;12.87;7.07;;;0.20;99.90;-1.00;102161;;;;564679;253;24170;-83
2024/01/09 11:52:42;;;;;;;8.07;5.80;;;0.20;99.90;-1.00;102160;;;;565687;250;24123;-84
2024/01/09 11:55:10;;;;;;;3.97;2.83;;;0.20;99.90;-1.00;102150;;;;566227;253;24173;-83
2024/01/09 11:57:38;;;;;;;5.23;4.40;;;0.20;99.90;-1.00;102151;;;;557520;254;25156;-83
2024/01/09 12:00:09;;;;;;;6.00;4.20;;;0.20;99.90;-1.00;102152;;;;558354;254;24122;-84
2024/01/09 12:02:34;;;;;;;9.57;5.80;;;0.20;99.90;-1.00;102161;;;;544498;259;24126;-83
2024/01/09 12:05:05;;;;;;;7.23;3.30;;;0.30;99.90;-0.90;102151;;;;548075;258;24210;-84
2024/01/09 12:07:33;;;;;;;10.03;5.70;;;0.20;99.90;-0.90;102149;;;;558105;254;24116;-84
2024/01/09 12:09:57;;;;;;;7.77;5.13;;;0.30;99.90;-0.90;102150;;;;561949;249;24117;-84
2024/01/09 12:12:29;;;;;;;7.37;4.77;;;0.30;99.90;-0.90;102144;;;;577028;248;24079;-84
2024/01/09 12:14:56;;;;;;;8.23;5.63;;;0.30;99.90;-0.90;102143;;;;567609;249;24128;-84
2024/01/09 12:17:33;;;;;;;9.60;5.00;;;0.30;99.90;-0.90;102149;;;;567010;248;24099;-85
2024/01/09 12:20:01;;;;;;;9.97;5.57;;;0.20;99.90;-1.00;102142;;;;559163;253;24123;-83
2024/01/09 12:22:25;;;;;;;9.10;4.93;;;0.20;99.90;-0.90;102143;;;;556019;254;24164;-83
2024/01/09 12:24:53;;;;;;;10.33;5.33;;;0.20;99.90;-0.90;102143;;;;574658;246;24083;-83
2024/01/09 12:27:27;;;;;;;8.97;5.37;;;0.20;99.90;-0.90;102147;;;;574623;246;24134;-85
2024/01/09 12:29:56;;;;;;;9.33;5.10;;;0.30;99.90;-0.90;102143;;;;574996;246;24106;-84
2024/01/09 12:32:23;;;;;;;17.27;9.55;;;0.30;99.90;-0.90;102141;;;;566646;246;35177;-84
2024/01/09 12:34:55;;;;;;;10.43;7.23;;;0.30;99.90;-0.80;102149;;;;566303;250;24165;-84
2024/01/09 12:37:19;;;;;;;13.53;6.37;;;0.40;99.90;-0.80;102147;;;;570489;251;24135;-82
2024/01/09 12:39:47;;;;;;;9.00;5.43;;;0.40;99.90;-0.80;102150;;;;564369;251;25185;-85
2024/01/09 12:42:16;;;;;;;11.77;6.00;;;0.40;99.90;-0.80;102145;;;;563574;251;24125;-85
2024/01/09 12:44:43;;;;;;;11.47;5.60;;;0.40;99.90;-0.80;102141;;;;569463;251;24122;-84
2024/01/09 12:47:17;;;;;;;10.57;6.10;;;0.40;99.90;-0.90;102139;;;;559135;251;24134;-86
2024/01/09 12:49:52;;;;;;;10.43;5.63;;;0.30;99.90;-0.90;102137;;;;554683;251;24141;-85
2024/01/09 12:52:20;;;;;;;7.70;4.40;;;0.20;99.90;-0.90;102130;;;;568163;249;24096;-85
2024/01/09 12:54:48;;;;;;;13.10;5.50;;;0.20;99.90;-0.90;102138;;;;556925;254;24099;-85
2024/01/09 12:57:13;;;;;;;12.70;5.17;;;0.20;99.90;-0.90;102135;;;;561899;255;24133;-84
2024/01/09 12:59:44;;;;;;;11.23;5.80;;;0.20;99.90;-0.90;102132;;;;552768;256;24161;-84
2024/01/09 13:02:08;;;;;;;10.77;5.00;;;0.20;99.90;-1.00;102120;;;;553341;254;24098;-84
2024/01/09 13:04:36;;;;;;;12.77;7.10;;;0.20;99.90;-1.00;102115;;;;562305;254;24181;-83
2024/01/09 13:07:04;;;;;;;9.23;5.70;;;0.20;99.90;-1.00;102122;;;;577879;247;24071;-84
2024/01/09 13:09:32;;;;;;;10.17;6.00;;;0.20;99.90;-0.90;102119;;;;556139;255;24143;-83
2024/01/09 13:12:00;;;;;;;8.40;5.73;;;0.20;99.90;-0.90;102119;;;;566397;250;24139;-86
2024/01/09 13:14:28;;;;;;;11.23;5.60;;;0.30;99.90;-0.90;102121;;;;554774;255;24135;-86
2024/01/09 13:16:57;;;;;;;11.23;5.30;;;0.30;99.90;-0.90;102112;;;;554301;255;24094;-84
2024/01/09 13:19:25;;;;;;;10.73;5.13;;;0.30;99.90;-0.80;102115;;;;566552;250;24138;-86
2024/01/09 13:21:55;;;;;;;6.97;5.13;;;0.40;99.90;-0.80;102112;;;;553447;257;24114;-85
2024/01/09 13:24:20;;;;;;;8.83;5.67;;;0.40;99.90;-0.80;102126;;;;564314;254;24074;-84
2024/01/09 13:26:52;;;;;;;10.43;4.47;;;0.40;99.90;-0.80;102118;;;;559173;253;24184;-83
2024/01/09 13:29:18;;;;;;;11.17;7.10;;;0.40;99.90;-0.80;102115;;;;560102;253;24133;-86
2024/01/09 13:31:47;;;;;;;6.33;4.83;;;0.30;99.90;-0.90;102112;;;;562982;251;24131;-85
2024/01/09 13:34:16;;;;;;;14.73;7.33;;;0.30;99.90;-0.90;102118;;;;556500;253;24142;-86
2024/01/09 13:36:43;;;;;;;11.43;6.57;;;0.20;99.90;-0.90;102113;;;;564474;249;24103;-85
2024/01/09 13:39:12;;;;;;;13.27;6.10;;;0.20;99.90;-0.90;102127;;;;577235;249;24171;-83
2024/01/09 13:41:39;;;;;;;8.13;5.37;;;0.20;99.90;-0.90;102114;;;;571590;249;24170;-83
2024/01/09 13:44:05;;;;;;;12.97;8.43;;;0.20;99.90;-1.00;102113;;;;575664;248;24104;-84
2024/01/09 13:46:33;;;;;;;10.33;6.17;;;0.20;99.90;-1.00;102109;;;;578188;248;24144;-84
2024/01/09 13:49:00;;;;;;;18.90;8.00;;;0.10;99.90;-1.00;102125;;;;568522;249;25133;-84
2024/01/09 13:51:28;;;;;;;12.17;7.67;;;0.10;99.90;-1.00;102116;;;;566186;249;24120;-84
2024/01/09 13:53:59;;;;;;;16.90;7.27;;;0.10;99.90;-1.00;102109;;;;569727;249;24149;-83
2024/01/09 13:56:30;;;;;;;14.23;5.87;;;0.10;99.90;-1.00;102109;;;;567781;249;24115;-85
2024/01/09 13:58:59;;;;;;;12.43;7.23;;;0.10;99.90;-1.00;102111;;;;569467;249;24110;-85
2024/01/09 14:01:24;;;;;;;11.13;6.30;;;0.10;99.90;-1.00;102106;;;;566818;249;24164;-84
2024/01/09 14:03:52;;;;;;;9.97;7.00;;;0.10;99.90;-1.00;102103;;;;567007;249;24143;-84
2024/01/09 14:06:20;;;;;;;5.63;3.80;;;0.10;99.90;-1.00;102098;;;;566943;249;24108;-85
2024/01/09 14:08:52;;;;;;;10.70;6.50;;;0.10;99.90;-1.00;102094;;;;567091;249;24129;-86
2024/01/09 14:11:20;;;;;;;6.67;5.97;;;0.10;99.90;-1.00;102099;;;;566594;249;24109;-86
2024/01/09 14:13:49;;;;;;;8.33;5.90;;;0.10;99.90;-1.00;102099;;;;566741;249;24163;-83
2024/01/09 14:16:17;;;;;;;17.30;6.73;;;0.10;99.90;-1.10;102101;;;;569870;249;24093;-83
2024/01/09 14:18:44;;;;;;;15.80;7.00;;;0.00;99.90;-1.10;102087;;;;567216;249;24101;-85
2024/01/09 14:21:12;;;;;;;8.50;4.73;;;0.00;99.90;-1.20;102081;;;;575802;248;24130;-84
2024/01/09 14:23:37;;;;;;;14.67;6.27;;;-0.10;99.90;-1.20;102100;;;;575640;248;24181;-83
2024/01/09 14:26:05;;;;;;;10.27;6.50;;;0.00;99.90;-1.20;102079;;;;572676;247;24073;-84
2024/01/09 14:28:36;;;;;;;7.83;4.13;;;-0.10;99.90;-1.10;102088;;;;575131;246;24098;-84
2024/01/09 14:31:05;;;;;;;8.40;5.60;;;0.00;99.90;-1.10;102095;;;;574688;246;24152;-84
2024/01/09 14:33:33;;;;;;;12.23;6.07;;;-0.10;99.90;-1.10;102104;;;;574599;246;24112;-85
2024/01/09 14:35:59;;;;;;;7.93;4.23;;;-0.10;99.90;-1.20;102095;;;;559217;253;24117;-85
2024/01/09 14:38:25;;;;;;;8.57;4.83;;;-0.10;99.90;-1.20;102094;;;;572844;246;24123;-85
2024/01/09 14:40:53;;;;;;;8.00;5.13;;;-0.10;99.90;-1.20;102092;;;;554429;250;24123;-81
2024/01/09 14:43:21;;;;;;;11.13;6.03;;;-0.10;99.90;-1.20;102096;;;;557742;254;24175;-85
2024/01/09 14:45:51;;;;;;;6.93;5.20;;;-0.10;99.90;-1.20;102100;;;;567826;248;24096;-84
2024/01/09 14:48:22;;;;;;;4.10;3.27;;;-0.20;99.90;-1.20;102093;;;;578453;248;24127;-82
2024/01/09 14:50:48;;;;;;;13.07;6.27;;;-0.20;99.90;-1.20;102101;;;;569395;248;24178;-83
2024/01/09 14:53:20;;;;;;;3.47;1.97;;;-0.20;99.90;-1.30;102099;;;;578520;247;24148;-84
2024/01/09 14:55:47;;;;;;;14.10;6.73;;;-0.20;99.90;-1.30;102104;;;;577823;248;24111;-84
2024/01/09 14:58:16;;;;;;;7.83;5.20;;;-0.20;99.90;-1.30;102095;;;;578039;248;24153;-83
2024/01/09 15:00:43;;;;;;;16.57;5.33;;;-0.20;99.90;-1.30;102095;;;;577546;248;24079;-83
2024/01/09 15:03:08;;;;;;;13.30;6.40;;;-0.20;99.90;-1.30;102088;;;;569156;248;24145;-81
2024/01/09 15:05:36;;;;;;;4.87;3.47;;;-0.30;99.90;-1.40;102087;;;;578046;248;24102;-80
2024/01/09 15:08:07;;;;;;;3.57;3.23;;;-0.30;99.90;-1.40;102095;;;;566495;248;24168;-81
2024/01/09 15:10:32;;;;;;;19.50;7.50;;;-0.30;99.90;-1.40;102096;;;;564918;248;24223;-81
2024/01/09 15:13:00;;;;;;;6.43;3.50;;;-0.30;99.90;-1.40;102101;;;;569041;248;24098;-79
2024/01/09 15:15:28;;;;;;;15.60;7.03;;;-0.30;99.90;-1.40;102097;;;;569067;248;24113;-80
2024/01/09 15:18:00;;;;;;;19.63;8.23;;;-0.30;99.90;-1.40;102087;;;;568971;248;24170;-80
2024/01/09 15:20:26;;;;;;;9.33;5.33;;;-0.30;99.90;-1.30;102097;;;;577266;248;24117;-80
2024/01/09 15:22:55;;;;;;;6.07;4.60;;;-0.30;99.90;-1.30;102087;;;;569066;248;24177;-80
2024/01/09 15:25:20;;;;;;;5.90;4.30;;;-0.20;99.90;-1.30;102092;;;;569347;248;24106;-81
2024/01/09 15:27:48;;;;;;;8.17;3.57;;;-0.20;99.90;-1.30;102085;;;;569133;248;24215;-82
2024/01/09 15:30:16;;;;;;;13.73;7.20;;;-0.20;99.90;-1.30;102082;;;;569558;248;24139;-82
2024/01/09 15:32:44;;;;;;;10.47;1.90;;;-0.20;99.90;-1.30;102075;;;;569203;248;24159;-80
2024/01/09 15:35:12;;;;;;;8.77;5.57;;;-0.30;99.90;-1.40;102082;;;;569363;248;24093;-80
2024/01/09 15:37:39;;;;;;;16.17;7.13;;;-0.30;99.90;-1.40;102072;;;;569224;248;24105;-82
2024/01/09 15:40:12;;;;;;;17.40;7.20;;;-0.30;99.90;-1.40;102075;;;;570169;248;24133;-81
2024/01/09 15:42:36;;;;;;;12.67;7.57;;;-0.30;99.90;-1.40;102069;;;;578726;248;24122;-81
2024/01/09 15:45:04;;;;;;;3.63;3.33;;;-0.30;99.90;-1.40;102076;;;;570061;248;24123;-82
2024/01/09 15:47:35;;;;;;;10.17;5.93;;;-0.30;99.90;-1.40;102072;;;;569717;248;24106;-81
2024/01/09 15:50:00;;;;;;;13.90;5.97;;;-0.30;99.90;-1.50;102071;;;;557527;254;24119;-81
2024/01/09 15:52:37;;;;;;;11.50;7.60;;;-0.40;99.90;-1.50;102067;;;;557587;254;24170;-80
2024/01/09 15:55:00;;;;;;;10.87;6.53;;;-0.40;99.90;-1.50;102068;;;;547882;257;24149;-82
2024/01/09 15:57:29;;;;;;;7.80;5.77;;;-0.40;99.90;-1.50;102074;;;;566696;252;24133;-82
2024/01/09 16:00:04;;;;;;;8.43;5.50;;;-0.40;99.90;-1.50;102077;;;;550260;258;24131;-79
2024/01/09 16:02:28;;;;;;;5.37;3.43;;;-0.40;99.90;-1.50;102077;;;;549931;258;24130;-82
2024/01/09 16:04:56;;;;;;;13.63;6.10;;;-0.40;99.90;-1.60;102070;;;;550141;258;24159;-80
2024/01/09 16:07:24;;;;;;;14.93;7.70;;;-0.50;99.90;-1.60;102071;;;;550649;258;24102;-82
2024/01/09 16:09:56;;;;;;;14.50;7.93;;;-0.40;99.90;-1.50;102078;;;;550518;258;24104;-82
2024/01/09 16:12:21;;;;;;;12.47;7.73;;;-0.40;99.90;-1.50;102077;;;;558046;257;24121;-80
2024/01/09 16:14:53;;;;;;;10.03;4.87;;;-0.40;99.90;-1.50;102063;;;;550014;258;24104;-82
2024/01/09 16:17:19;;;;;;;10.43;5.47;;;-0.40;99.90;-1.50;102069;;;;550036;258;24183;-80
2024/01/09 16:19:47;;;;;;;8.87;6.33;;;-0.50;99.90;-1.50;102074;;;;557457;257;24130;-80
2024/01/09 16:22:18;;;;;;;9.90;4.77;;;-0.50;99.90;-1.60;102064;;;;549360;258;24136;-80
2024/01/09 16:24:43;;;;;;;14.27;6.80;;;-0.50;99.90;-1.60;102067;;;;549522;258;24121;-81
2024/01/09 16:27:11;;;;;;;16.17;8.20;;;-0.50;99.90;-1.60;102066;;;;549783;258;24163;-81
2024/01/09 16:29:43;;;;;;;7.73;3.63;;;-0.50;99.90;-1.60;102065;;;;549961;258;24204;-82
2024/01/09 16:32:11;;;;;;;24.00;9.30;;;-0.50;99.90;-1.60;102058;;;;549471;258;24162;-81
2024/01/09 16:34:35;;;;;;;14.83;8.60;;;-0.50;99.90;-1.60;102065;;;;548737;257;24182;-80
2024/01/09 16:37:06;;;;;;;10.07;5.37;;;-0.50;99.90;-1.60;102061;;;;549304;258;24144;-80
2024/01/09 16:39:31;;;;;;;12.30;7.87;;;-0.50;99.90;-1.60;102050;;;;549325;258;25177;-81
2024/01/09 16:41:59;;;;;;;5.03;3.10;;;-0.40;99.90;-1.60;102057;;;;549572;258;24143;-82
2024/01/09 16:44:29;;;;;;;12.67;7.20;;;-0.40;99.90;-1.60;102067;;;;549743;258;24132;-82
2024/01/09 16:46:57;;;;;;;2.80;2.10;;;-0.50;99.90;-1.60;102060;;;;549358;258;24174;-81
2024/01/09 16:49:22;;;;;;;13.53;6.83;;;-0.50;99.90;-1.60;102057;;;;549783;256;24188;-81
2024/01/09 16:51:51;;;;;;;9.97;5.43;;;-0.50;99.90;-1.60;102073;;;;550451;258;24174;-81
2024/01/09 16:54:19;;;;;;;21.87;8.90;;;-0.50;99.90;-1.70;102053;;;;550543;258;24107;-80
2024/01/09 16:56:48;;;;;;;6.27;3.80;;;-0.60;99.90;-1.70;102052;;;;550391;258;24114;-80
2024/01/09 16:59:18;;;;;;;17.07;8.23;;;-0.60;99.90;-1.70;102057;;;;558551;257;24192;-82
2024/01/09 17:01:45;;;;;;;6.90;4.27;;;-0.60;99.90;-1.70;102056;;;;550371;258;24182;-82
2024/01/09 17:04:16;;;;;;;20.33;8.60;;;-0.60;99.90;-1.70;102060;;;;550476;258;24117;-80
2024/01/09 17:06:42;;;;;;;18.30;8.17;;;-0.60;99.90;-1.70;102058;;;;550306;258;24126;-81
2024/01/09 17:09:17;;;;;;;;;;;;;;;;;;;;;
2024/01/09 17:11:41;;;;;;;13.47;6.13;;;-0.60;99.90;-1.70;102056;;;;549729;258;24174;-79
2024/01/09 17:14:09;;;;;;;7.23;5.37;;;-0.60;99.90;-1.70;102046;;;;550358;258;24172;-81
2024/01/09 17:16:46;;;;;;;18.80;9.33;;;-0.60;99.90;-1.80;102049;;;;550316;258;24125;-80
2024/01/09 17:19:13;;;;;;;14.53;6.67;;;-0.60;99.90;-1.80;102048;;;;550188;258;24190;-80
2024/01/09 17:21:38;;;;;;;25.23;10.93;;;-0.70;99.90;-1.80;102043;;;;549751;258;24152;-81
2024/01/09 17:24:09;;;;;;;36.83;16.17;;;-0.70;99.90;-1.90;102035;;;;547058;259;24134;-81
2024/01/09 17:26:35;;;;;;;33.47;16.57;;;-0.80;99.90;-1.90;102039;;;;557025;254;24216;-80
2024/01/09 17:29:03;;;;;;;37.70;19.13;;;-0.80;99.90;-1.90;102048;;;;565561;253;24101;-81
2024/01/09 17:31:34;;;;;;;39.77;19.43;;;-0.80;99.90;-2.00;102046;;;;565277;253;24176;-81
2024/01/09 17:34:01;;;;;;;37.67;19.13;;;-0.90;99.90;-2.00;102032;;;;553102;254;24123;-81
2024/01/09 17:36:26;;;;;;;31.83;16.93;;;-0.90;99.90;-2.00;102037;;;;565231;254;24151;-83
2024/01/09 17:38:57;;;;;;;37.03;19.47;;;-0.90;99.90;-2.10;102025;;;;565516;253;24124;-81
2024/01/09 17:41:23;;;;;;;33.87;16.90;;;-1.00;99.90;-2.10;102024;;;;556978;254;24136;-80
2024/01/09 17:43:52;;;;;;;35.73;18.47;;;-1.00;99.90;-2.10;102020;;;;565471;253;24117;-81
2024/01/09 17:46:20;;;;;;;34.90;17.07;;;-1.00;99.90;-2.10;102026;;;;565468;253;24123;-82
2024/01/09 17:48:49;;;;;;;37.77;18.30;;;-1.10;99.90;-2.20;102017;;;;565711;253;24165;-82
2024/01/09 17:51:17;;;;;;;34.53;18.60;;;-1.10;99.90;-2.20;102012;;;;565735;253;24136;-82
2024/01/09 17:53:45;;;;;;;35.77;17.90;;;-1.10;99.90;-2.20;102016;;;;565570;253;24133;-81
2024/01/09 17:56:14;;;;;;;37.30;19.50;;;-1.10;99.90;-2.20;102015;;;;564915;253;24149;-81
2024/01/09 17:58:41;;;;;;;39.00;19.43;;;-1.10;99.90;-2.20;102030;;;;565142;253;24151;-80
2024/01/09 18:01:13;;;;;;;35.33;18.10;;;-1.20;99.90;-2.20;102014;;;;565089;253;24140;-81
2024/01/09 18:03:40;;;;;;;35.20;17.63;;;-1.10;99.90;-2.20;102011;;;;556066;253;24146;-82
2024/01/09 18:06:09;;;;;;;35.33;17.90;;;-1.10;99.90;-2.20;102007;;;;557540;253;24132;-81
2024/01/09 18:08:33;;;;;;;39.43;16.83;;;-1.20;99.90;-2.20;102002;;;;555584;254;24131;-82
2024/01/09 18:11:01;;;;;;;30.50;16.17;;;-1.20;99.90;-2.30;102019;;;;557670;254;24121;-81
2024/01/09 18:13:32;;;;;;;34.07;18.47;;;-1.20;99.90;-2.30;102012;;;;565690;253;24109;-83
2024/01/09 18:15:57;;;;;;;34.23;17.67;;;-1.20;99.90;-2.30;102012;;;;553800;254;24156;-82
2024/01/09 18:18:28;;;;;;;30.07;15.83;;;-1.20;99.90;-2.30;102011;;;;555920;254;24130;-81
2024/01/09 18:20:53;;;;;;;34.90;17.67;;;-1.20;99.90;-2.30;102001;;;;565634;254;24140;-81
2024/01/09 18:23:21;;;;;;;35.33;17.57;;;-1.20;99.90;-2.30;102007;;;;566553;253;24193;-81
2024/01/09 18:25:52;;;;;;;30.30;17.10;;;-1.20;99.90;-2.30;102005;;;;566668;253;24118;-80
2024/01/09 18:28:17;;;;;;;32.47;15.50;;;-1.30;99.90;-2.30;102009;;;;556465;254;24161;-79
2024/01/09 18:30:47;;;;;;;38.17;18.90;;;-1.30;99.90;-2.40;102009;;;;566757;253;24128;-80
2024/01/09 18:33:15;;;;;;;33.63;17.20;;;-1.30;99.90;-2.30;102011;;;;566411;253;24136;-80
2024/01/09 18:35:43;;;;;;;28.67;14.80;;;-1.30;99.90;-2.40;102009;;;;566437;253;24161;-80
2024/01/09 18:38:11;;;;;;;29.60;15.73;;;-1.30;99.90;-2.40;102025;;;;566514;253;24155;-78
2024/01/09 18:40:41;;;;;;;32.83;16.80;;;-1.30;99.90;-2.40;102015;;;;566451;253;24184;-80
2024/01/09 18:43:06;;;;;;;36.10;16.03;;;-1.30;99.90;-2.40;102029;;;;566094;253;24167;-80
2024/01/09 18:45:34;;;;;;;28.20;16.17;;;-1.30;99.90;-2.40;102018;;;;566470;253;24121;-82
2024/01/09 18:48:02;;;;;;;27.87;15.53;;;-1.30;99.90;-2.40;102012;;;;557980;254;24101;-80
2024/01/09 18:50:30;;;;;;;26.27;14.27;;;-1.30;99.90;-2.40;102010;;;;566212;253;24245;-80
2024/01/09 18:52:58;;;;;;;34.27;16.23;;;-1.30;99.90;-2.40;102014;;;;565668;253;24245;-81
2024/01/09 18:55:29;;;;;;;24.40;14.43;;;-1.30;99.90;-2.40;102011;;;;565426;253;24124;-80
2024/01/09 18:57:54;;;;;;;31.00;13.30;;;-1.30;99.90;-2.40;102008;;;;555699;254;24129;-80
2024/01/09 19:00:22;;;;;;;23.13;12.47;;;-1.30;99.90;-2.40;102025;;;;565770;253;24157;-81
2024/01/09 19:02:50;;;;;;;29.30;15.83;;;-1.30;99.90;-2.40;102015;;;;565663;253;24117;-81
2024/01/09 19:05:21;;;;;;;26.93;14.23;;;-1.30;99.90;-2.40;102025;;;;565599;253;24124;-81
2024/01/09 19:07:46;;;;;;;32.70;15.17;;;-1.30;99.90;-2.40;102011;;;;555495;254;24135;-82
2024/01/09 19:10:17;;;;;;;30.27;14.17;;;-1.30;99.90;-2.40;102013;;;;565429;253;24171;-81
2024/01/09 19:12:42;;;;;;;25.63;12.57;;;-1.20;99.90;-2.30;102018;;;;565141;254;24109;-81
2024/01/09 19:15:10;;;;;;;31.00;13.80;;;-1.20;99.90;-2.30;102007;;;;566524;252;24146;-81
2024/01/09 19:17:41;;;;;;;29.43;16.23;;;-1.20;99.90;-2.30;102009;;;;556535;253;24163;-81
2024/01/09 19:20:09;;;;;;;23.53;11.93;;;-1.20;99.90;-2.20;102011;;;;565796;253;24168;-82
2024/01/09 19:22:34;;;;;;;22.27;11.93;;;-1.10;99.90;-2.20;102014;;;;555786;254;24128;-80
2024/01/09 19:25:02;;;;;;;33.73;15.60;;;-1.10;99.90;-2.20;102007;;;;565465;253;24171;-80
2024/01/09 19:27:30;;;;;;;27.57;14.17;;;-1.10;99.90;-2.20;102001;;;;565511;250;24141;-80
2024/01/09 19:29:58;;;;;;;28.27;12.43;;;-1.10;99.90;-2.20;101997;;;;565413;253;24121;-81
2024/01/09 19:32:29;;;;;;;21.87;12.33;;;-1.10;99.90;-2.20;101995;;;;565400;253;24110;-81
2024/01/09 19:34:55;;;;;;;29.23;14.67;;;-1.10;99.90;-2.20;101988;;;;555130;254;24165;-81
2024/01/09 19:37:23;;;;;;;21.13;11.73;;;-1.10;99.90;-2.20;101988;;;;565279;253;24153;-81
2024/01/09 19:39:50;;;;;;;26.70;15.20;;;-1.10;99.90;-2.30;101981;;;;565557;253;24169;-81
2024/01/09 19:42:18;;;;;;;28.83;15.00;;;-1.10;99.90;-2.30;101979;;;;565464;253;24138;-81